sensor_id;sensor_type;location;lat;lon;timestamp;temperature;humidity
33717;DHT22;20046;50.746;7.072;2024-01-25T00:01:16;9.50;99.90
33717;DHT22;20046;50.746;7.072;2024-01-25T00:03:42;9.50;99.90
33717;DHT22;20046;50.746;7.072;2024-01-25T00:06:07;9.50;99.90
33717;DHT22;20046;50.746;7.072;2024-01-25T00:08:34;9.50;99.90
33717;DHT22;20046;50.746;7.072;2024-01-25T00:11:03;9.50;99.90
33717;DHT22;20046;50.746;7.072;2024-01-25T00:13:29;9.50;99.90
33717;DHT22;20046;50.746;7.072;2024-01-25T00:15:55;9.50;99.90
33717;DHT22;20046;50.746;7.072;2024-01-25T00:18:20;9.50;99.90
33717;DHT22;20046;50.746;7.072;2024-01-25T00:20:46;9.40;99.90
33717;DHT22;20046;50.746;7.072;2024-01-25T00:23:12;9.40;99.90
33717;DHT22;20046;50.746;7.072;2024-01-25T00:25:37;9.40;99.90
33717;DHT22;20046;50.746;7.072;2024-01-25T00:28:03;9.40;99.90
33717;DHT22;20046;50.746;7.072;2024-01-25T00:30:29;9.40;99.90
33717;DHT22;20046;50.746;7.072;2024-01-25T00:32:56;9.30;99.90
33717;DHT22;20046;50.746;7.072;2024-01-25T00:35:22;9.40;99.90
33717;DHT22;20046;50.746;7.072;2024-01-25T00:37:48;9.30;99.90
33717;DHT22;20046;50.746;7.072;2024-01-25T00:40:14;9.30;99.90
33717;DHT22;20046;50.746;7.072;2024-01-25T00:42:45;9.30;99.90
33717;DHT22;20046;50.746;7.072;2024-01-25T00:45:14;9.30;99.90
33717;DHT22;20046;50.746;7.072;2024-01-25T00:47:40;9.30;99.90
33717;DHT22;20046;50.746;7.072;2024-01-25T00:50:06;9.30;99.90
33717;DHT22;20046;50.746;7.072;2024-01-25T00:52:32;9.30;99.90
33717;DHT22;20046;50.746;7.072;2024-01-25T00:54:58;9.30;99.90
33717;DHT22;20046;50.746;7.072;2024-01-25T00:57:24;9.30;99.90
33717;DHT22;20046;50.746;7.072;2024-01-25T00:59:50;9.30;99.90
33717;DHT22;20046;50.746;7.072;2024-01-25T01:02:15;9.30;99.90
33717;DHT22;20046;50.746;7.072;2024-01-25T01:04:42;9.30;99.90
33717;DHT22;20046;50.746;7.072;2024-01-25T01:07:08;9.20;99.90
33717;DHT22;20046;50.746;7.072;2024-01-25T01:09:34;9.20;99.90
33717;DHT22;20046;50.746;7.072;2024-01-25T01:12:00;9.20;99.90
33717;DHT22;20046;50.746;7.072;2024-01-25T01:14:25;9.20;99.90
33717;DHT22;20046;50.746;7.072;2024-01-25T01:16:51;9.20;99.90
33717;DHT22;20046;50.746;7.072;2024-01-25T01:19:17;9.20;99.90
33717;DHT22;20046;50.746;7.072;2024-01-25T01:21:43;9.20;99.90
33717;DHT22;20046;50.746;7.072;2024-01-25T01:24:10;9.10;99.90
33717;DHT22;20046;50.746;7.072;2024-01-25T01:26:36;9.10;99.90
33717;DHT22;20046;50.746;7.072;2024-01-25T01:29:02;9.10;99.90
33717;DHT22;20046;50.746;7.072;2024-01-25T01:31:28;9.00;99.90
33717;DHT22;20046;50.746;7.072;2024-01-25T01:33:53;8.90;99.90
33717;DHT22;20046;50.746;7.072;2024-01-25T01:36:19;8.90;99.90
33717;DHT22;20046;50.746;7.072;2024-01-25T01:38:45;8.80;99.90
33717;DHT22;20046;50.746;7.072;2024-01-25T01:41:11;8.70;99.90
33717;DHT22;20046;50.746;7.072;2024-01-25T01:43:38;8.70;99.90
33717;DHT22;20046;50.746;7.072;2024-01-25T01:46:12;8.60;99.90
33717;DHT22;20046;50.746;7.072;2024-01-25T01:48:40;8.60;99.90
33717;DHT22;20046;50.746;7.072;2024-01-25T01:51:06;8.60;99.90
33717;DHT22;20046;50.746;7.072;2024-01-25T01:53:33;8.60;99.90
33717;DHT22;20046;50.746;7.072;2024-01-25T01:55:59;8.50;99.90
33717;DHT22;20046;50.746;7.072;2024-01-25T01:58:25;8.40;99.90
33717;DHT22;20046;50.746;7.072;2024-01-25T02:00:53;8.40;99.90
33717;DHT22;20046;50.746;7.072;2024-01-25T02:03:19;8.30;99.90
33717;DHT22;20046;50.746;7.072;2024-01-25T02:05:45;8.20;99.90
33717;DHT22;20046;50.746;7.072;2024-01-25T02:08:10;8.20;99.90
33717;DHT22;20046;50.746;7.072;2024-01-25T02:10:36;8.10;99.90
33717;DHT22;20046;50.746;7.072;2024-01-25T02:13:02;8.00;99.90
33717;DHT22;20046;50.746;7.072;2024-01-25T02:15:27;8.10;99.90
33717;DHT22;20046;50.746;7.072;2024-01-25T02:17:53;8.00;99.90
33717;DHT22;20046;50.746;7.072;2024-01-25T02:20:19;7.90;99.90
33717;DHT22;20046;50.746;7.072;2024-01-25T02:22:44;7.90;99.90
33717;DHT22;20046;50.746;7.072;2024-01-25T02:25:10;7.80;99.90
33717;DHT22;20046;50.746;7.072;2024-01-25T02:27:35;7.80;99.90
33717;DHT22;20046;50.746;7.072;2024-01-25T02:30:05;7.70;99.90
33717;DHT22;20046;50.746;7.072;2024-01-25T02:32:31;7.70;99.90
33717;DHT22;20046;50.746;7.072;2024-01-25T02:34:56;7.70;99.90
33717;DHT22;20046;50.746;7.072;2024-01-25T02:37:22;7.60;99.90
33717;DHT22;20046;50.746;7.072;2024-01-25T02:39:47;7.60;99.90
33717;DHT22;20046;50.746;7.072;2024-01-25T02:42:13;7.60;99.90
33717;DHT22;20046;50.746;7.072;2024-01-25T02:44:39;7.60;99.90
33717;DHT22;20046;50.746;7.072;2024-01-25T02:47:05;7.50;99.90
33717;DHT22;20046;50.746;7.072;2024-01-25T02:49:30;7.60;99.90
33717;DHT22;20046;50.746;7.072;2024-01-25T02:51:56;7.50;99.90
33717;DHT22;20046;50.746;7.072;2024-01-25T02:54:21;7.50;99.90
33717;DHT22;20046;50.746;7.072;2024-01-25T02:56:47;7.50;99.90
33717;DHT22;20046;50.746;7.072;2024-01-25T02:59:12;7.50;99.90
33717;DHT22;20046;50.746;7.072;2024-01-25T03:01:40;7.50;99.90
33717;DHT22;20046;50.746;7.072;2024-01-25T03:04:06;7.50;99.90
33717;DHT22;20046;50.746;7.072;2024-01-25T03:06:32;7.40;99.90
33717;DHT22;20046;50.746;7.072;2024-01-25T03:08:57;7.40;99.90
33717;DHT22;20046;50.746;7.072;2024-01-25T03:11:23;7.40;99.90
33717;DHT22;20046;50.746;7.072;2024-01-25T03:13:49;7.40;99.90
33717;DHT22;20046;50.746;7.072;2024-01-25T03:16:14;7.40;99.90
33717;DHT22;20046;50.746;7.072;2024-01-25T03:18:40;7.50;99.90
33717;DHT22;20046;50.746;7.072;2024-01-25T03:21:05;7.50;99.90
33717;DHT22;20046;50.746;7.072;2024-01-25T03:23:31;7.40;99.90
33717;DHT22;20046;50.746;7.072;2024-01-25T03:25:56;7.40;99.90
33717;DHT22;20046;50.746;7.072;2024-01-25T03:28:22;7.40;99.90
33717;DHT22;20046;50.746;7.072;2024-01-25T03:30:47;7.40;99.90
33717;DHT22;20046;50.746;7.072;2024-01-25T03:33:13;7.30;99.90
33717;DHT22;20046;50.746;7.072;2024-01-25T03:35:38;7.30;99.90
33717;DHT22;20046;50.746;7.072;2024-01-25T03:38:04;7.30;99.90
33717;DHT22;20046;50.746;7.072;2024-01-25T03:40:30;7.30;99.90
33717;DHT22;20046;50.746;7.072;2024-01-25T03:42:55;7.20;99.90
33717;DHT22;20046;50.746;7.072;2024-01-25T03:45:21;7.20;99.90
33717;DHT22;20046;50.746;7.072;2024-01-25T03:47:46;7.10;99.90
33717;DHT22;20046;50.746;7.072;2024-01-25T03:50:12;7.10;99.90
33717;DHT22;20046;50.746;7.072;2024-01-25T03:52:37;7.10;99.90
33717;DHT22;20046;50.746;7.072;2024-01-25T03:55:03;7.10;99.90
33717;DHT22;20046;50.746;7.072;2024-01-25T03:57:29;7.10;99.90
33717;DHT22;20046;50.746;7.072;2024-01-25T03:59:55;7.10;99.90
33717;DHT22;20046;50.746;7.072;2024-01-25T04:02:21;7.00;99.90
33717;DHT22;20046;50.746;7.072;2024-01-25T04:04:46;7.00;99.90
33717;DHT22;20046;50.746;7.072;2024-01-25T04:07:12;7.00;99.90
33717;DHT22;20046;50.746;7.072;2024-01-25T04:09:37;7.00;99.90
33717;DHT22;20046;50.746;7.072;2024-01-25T04:12:04;7.00;99.90
33717;DHT22;20046;50.746;7.072;2024-01-25T04:14:29;7.00;99.90
33717;DHT22;20046;50.746;7.072;2024-01-25T04:16:55;7.00;99.90
33717;DHT22;20046;50.746;7.072;2024-01-25T04:19:20;7.00;99.90
33717;DHT22;20046;50.746;7.072;2024-01-25T04:21:46;7.00;99.90
33717;DHT22;20046;50.746;7.072;2024-01-25T04:24:12;7.00;99.90
33717;DHT22;20046;50.746;7.072;2024-01-25T04:26:37;7.10;99.90
33717;DHT22;20046;50.746;7.072;2024-01-25T04:29:03;7.10;99.90
33717;DHT22;20046;50.746;7.072;2024-01-25T04:31:28;7.10;99.90
33717;DHT22;20046;50.746;7.072;2024-01-25T04:33:54;7.10;99.90
33717;DHT22;20046;50.746;7.072;2024-01-25T04:36:20;7.10;99.90
33717;DHT22;20046;50.746;7.072;2024-01-25T04:38:45;7.10;99.90
33717;DHT22;20046;50.746;7.072;2024-01-25T04:41:11;7.10;99.90
33717;DHT22;20046;50.746;7.072;2024-01-25T04:43:37;7.00;99.90
33717;DHT22;20046;50.746;7.072;2024-01-25T04:46:03;7.00;99.90
33717;DHT22;20046;50.746;7.072;2024-01-25T04:48:29;7.00;99.90
33717;DHT22;20046;50.746;7.072;2024-01-25T04:50:57;6.90;99.90
33717;DHT22;20046;50.746;7.072;2024-01-25T04:53:23;6.90;99.90
33717;DHT22;20046;50.746;7.072;2024-01-25T04:55:49;6.80;99.90
33717;DHT22;20046;50.746;7.072;2024-01-25T04:58:15;6.70;99.90
33717;DHT22;20046;50.746;7.072;2024-01-25T05:00:40;6.70;99.90
33717;DHT22;20046;50.746;7.072;2024-01-25T05:03:06;6.70;99.90
33717;DHT22;20046;50.746;7.072;2024-01-25T05:05:31;6.60;99.90
33717;DHT22;20046;50.746;7.072;2024-01-25T05:07:57;6.50;99.90
33717;DHT22;20046;50.746;7.072;2024-01-25T05:10:22;6.50;99.90
33717;DHT22;20046;50.746;7.072;2024-01-25T05:12:48;6.50;99.90
33717;DHT22;20046;50.746;7.072;2024-01-25T05:15:14;6.50;99.90
33717;DHT22;20046;50.746;7.072;2024-01-25T05:17:40;6.40;99.90
33717;DHT22;20046;50.746;7.072;2024-01-25T05:20:06;6.40;99.90
33717;DHT22;20046;50.746;7.072;2024-01-25T05:22:32;6.30;99.90
33717;DHT22;20046;50.746;7.072;2024-01-25T05:24:57;6.30;99.90
33717;DHT22;20046;50.746;7.072;2024-01-25T05:27:23;6.30;99.90
33717;DHT22;20046;50.746;7.072;2024-01-25T05:29:49;6.40;99.90
33717;DHT22;20046;50.746;7.072;2024-01-25T05:32:14;6.30;99.90
33717;DHT22;20046;50.746;7.072;2024-01-25T05:34:40;6.30;99.90
33717;DHT22;20046;50.746;7.072;2024-01-25T05:37:05;6.30;99.90
33717;DHT22;20046;50.746;7.072;2024-01-25T05:39:32;6.20;99.90
33717;DHT22;20046;50.746;7.072;2024-01-25T05:41:58;6.20;99.90
33717;DHT22;20046;50.746;7.072;2024-01-25T05:44:23;6.10;99.90
33717;DHT22;20046;50.746;7.072;2024-01-25T05:46:49;6.10;99.90
33717;DHT22;20046;50.746;7.072;2024-01-25T05:49:14;6.00;99.90
33717;DHT22;20046;50.746;7.072;2024-01-25T05:51:40;5.90;99.90
33717;DHT22;20046;50.746;7.072;2024-01-25T05:54:05;5.90;99.90
33717;DHT22;20046;50.746;7.072;2024-01-25T05:56:31;5.90;99.90
33717;DHT22;20046;50.746;7.072;2024-01-25T05:58:57;5.80;99.90
33717;DHT22;20046;50.746;7.072;2024-01-25T06:01:23;5.80;99.90
33717;DHT22;20046;50.746;7.072;2024-01-25T06:03:48;5.80;99.90
33717;DHT22;20046;50.746;7.072;2024-01-25T06:06:14;5.80;99.90
33717;DHT22;20046;50.746;7.072;2024-01-25T06:08:39;5.70;99.90
33717;DHT22;20046;50.746;7.072;2024-01-25T06:11:05;5.70;99.90
33717;DHT22;20046;50.746;7.072;2024-01-25T06:13:31;5.60;99.90
33717;DHT22;20046;50.746;7.072;2024-01-25T06:15:57;5.60;99.90
33717;DHT22;20046;50.746;7.072;2024-01-25T06:18:22;5.60;99.90
33717;DHT22;20046;50.746;7.072;2024-01-25T06:20:48;5.60;99.90
33717;DHT22;20046;50.746;7.072;2024-01-25T06:23:14;5.60;99.90
33717;DHT22;20046;50.746;7.072;2024-01-25T06:25:39;5.60;99.90
33717;DHT22;20046;50.746;7.072;2024-01-25T06:28:05;5.50;99.90
33717;DHT22;20046;50.746;7.072;2024-01-25T06:30:30;5.50;99.90
33717;DHT22;20046;50.746;7.072;2024-01-25T06:32:56;5.50;99.90
33717;DHT22;20046;50.746;7.072;2024-01-25T06:35:21;5.50;99.90
33717;DHT22;20046;50.746;7.072;2024-01-25T06:37:47;5.40;99.90
33717;DHT22;20046;50.746;7.072;2024-01-25T06:40:13;5.40;99.90
33717;DHT22;20046;50.746;7.072;2024-01-25T06:42:38;5.30;99.90
33717;DHT22;20046;50.746;7.072;2024-01-25T06:45:04;5.30;99.90
33717;DHT22;20046;50.746;7.072;2024-01-25T06:47:30;5.30;99.90
33717;DHT22;20046;50.746;7.072;2024-01-25T06:49:55;5.30;99.90
33717;DHT22;20046;50.746;7.072;2024-01-25T06:52:21;5.30;99.90
33717;DHT22;20046;50.746;7.072;2024-01-25T06:54:46;5.30;99.90
33717;DHT22;20046;50.746;7.072;2024-01-25T06:57:12;5.20;99.90
33717;DHT22;20046;50.746;7.072;2024-01-25T06:59:39;5.20;99.90
33717;DHT22;20046;50.746;7.072;2024-01-25T07:02:05;5.20;99.90
33717;DHT22;20046;50.746;7.072;2024-01-25T07:04:31;5.20;99.90
33717;DHT22;20046;50.746;7.072;2024-01-25T07:06:58;5.20;99.90
33717;DHT22;20046;50.746;7.072;2024-01-25T07:09:25;5.20;99.90
33717;DHT22;20046;50.746;7.072;2024-01-25T07:11:51;5.20;99.90
33717;DHT22;20046;50.746;7.072;2024-01-25T07:14:16;5.20;99.90
33717;DHT22;20046;50.746;7.072;2024-01-25T07:16:42;5.20;99.90
33717;DHT22;20046;50.746;7.072;2024-01-25T07:19:07;5.20;99.90
33717;DHT22;20046;50.746;7.072;2024-01-25T07:21:33;5.10;99.90
33717;DHT22;20046;50.746;7.072;2024-01-25T07:24:03;5.10;99.90
33717;DHT22;20046;50.746;7.072;2024-01-25T07:26:31;5.10;99.90
33717;DHT22;20046;50.746;7.072;2024-01-25T07:28:57;5.10;99.90
33717;DHT22;20046;50.746;7.072;2024-01-25T07:31:27;5.10;99.90
33717;DHT22;20046;50.746;7.072;2024-01-25T07:33:53;5.20;99.90
33717;DHT22;20046;50.746;7.072;2024-01-25T07:36:19;5.20;99.90
33717;DHT22;20046;50.746;7.072;2024-01-25T07:38:45;5.20;99.90
33717;DHT22;20046;50.746;7.072;2024-01-25T07:41:14;5.30;99.90
33717;DHT22;20046;50.746;7.072;2024-01-25T07:43:41;5.30;99.90
33717;DHT22;20046;50.746;7.072;2024-01-25T07:46:06;5.30;99.90
33717;DHT22;20046;50.746;7.072;2024-01-25T07:48:44;5.40;99.90
33717;DHT22;20046;50.746;7.072;2024-01-25T07:51:13;5.40;99.90
33717;DHT22;20046;50.746;7.072;2024-01-25T07:53:39;5.50;99.90
33717;DHT22;20046;50.746;7.072;2024-01-25T07:56:09;5.50;99.90
33717;DHT22;20046;50.746;7.072;2024-01-25T07:58:36;5.50;99.90
33717;DHT22;20046;50.746;7.072;2024-01-25T08:01:05;5.60;99.90
33717;DHT22;20046;50.746;7.072;2024-01-25T08:03:32;5.60;99.90
33717;DHT22;20046;50.746;7.072;2024-01-25T08:05:58;5.80;99.90
33717;DHT22;20046;50.746;7.072;2024-01-25T08:08:24;5.90;99.90
33717;DHT22;20046;50.746;7.072;2024-01-25T08:10:49;6.00;99.90
33717;DHT22;20046;50.746;7.072;2024-01-25T08:13:15;6.10;99.90
33717;DHT22;20046;50.746;7.072;2024-01-25T08:15:41;6.40;99.90
33717;DHT22;20046;50.746;7.072;2024-01-25T08:18:07;6.60;99.90
33717;DHT22;20046;50.746;7.072;2024-01-25T08:20:32;6.80;99.90
33717;DHT22;20046;50.746;7.072;2024-01-25T08:22:58;7.10;99.90
33717;DHT22;20046;50.746;7.072;2024-01-25T08:25:25;7.20;99.90
33717;DHT22;20046;50.746;7.072;2024-01-25T08:27:50;7.40;99.90
33717;DHT22;20046;50.746;7.072;2024-01-25T08:30:16;7.50;99.90
33717;DHT22;20046;50.746;7.072;2024-01-25T08:32:41;7.60;99.90
33717;DHT22;20046;50.746;7.072;2024-01-25T08:35:07;7.80;99.90
33717;DHT22;20046;50.746;7.072;2024-01-25T08:37:33;8.00;99.90
33717;DHT22;20046;50.746;7.072;2024-01-25T08:39:59;8.20;99.90
33717;DHT22;20046;50.746;7.072;2024-01-25T08:42:24;8.40;99.90
33717;DHT22;20046;50.746;7.072;2024-01-25T08:44:50;8.50;99.90
33717;DHT22;20046;50.746;7.072;2024-01-25T08:47:17;8.70;99.90
33717;DHT22;20046;50.746;7.072;2024-01-25T08:49:43;8.80;99.90
33717;DHT22;20046;50.746;7.072;2024-01-25T08:52:09;8.90;99.90
33717;DHT22;20046;50.746;7.072;2024-01-25T08:54:35;9.00;99.90
33717;DHT22;20046;50.746;7.072;2024-01-25T08:57:03;9.20;99.90
33717;DHT22;20046;50.746;7.072;2024-01-25T08:59:29;9.50;99.90
33717;DHT22;20046;50.746;7.072;2024-01-25T09:01:57;9.70;99.90
33717;DHT22;20046;50.746;7.072;2024-01-25T09:04:23;9.90;99.90
33717;DHT22;20046;50.746;7.072;2024-01-25T09:06:49;10.10;99.90
33717;DHT22;20046;50.746;7.072;2024-01-25T09:09:14;10.20;99.90
33717;DHT22;20046;50.746;7.072;2024-01-25T09:11:40;10.20;99.90
33717;DHT22;20046;50.746;7.072;2024-01-25T09:14:05;10.20;99.90
33717;DHT22;20046;50.746;7.072;2024-01-25T09:16:31;10.20;99.90
33717;DHT22;20046;50.746;7.072;2024-01-25T09:18:56;10.30;99.90
33717;DHT22;20046;50.746;7.072;2024-01-25T09:21:22;10.40;99.90
33717;DHT22;20046;50.746;7.072;2024-01-25T09:23:47;10.60;99.90
33717;DHT22;20046;50.746;7.072;2024-01-25T09:26:13;10.90;99.90
33717;DHT22;20046;50.746;7.072;2024-01-25T09:28:40;11.10;99.90
33717;DHT22;20046;50.746;7.072;2024-01-25T09:31:05;11.20;99.90
33717;DHT22;20046;50.746;7.072;2024-01-25T09:33:31;11.40;99.90
33717;DHT22;20046;50.746;7.072;2024-01-25T09:35:56;11.60;99.90
33717;DHT22;20046;50.746;7.072;2024-01-25T09:38:23;11.80;99.90
33717;DHT22;20046;50.746;7.072;2024-01-25T09:40:48;12.00;99.90
33717;DHT22;20046;50.746;7.072;2024-01-25T09:43:15;12.00;99.90
33717;DHT22;20046;50.746;7.072;2024-01-25T09:45:41;12.10;99.90
33717;DHT22;20046;50.746;7.072;2024-01-25T09:48:07;12.00;99.90
33717;DHT22;20046;50.746;7.072;2024-01-25T09:50:33;12.00;99.90
33717;DHT22;20046;50.746;7.072;2024-01-25T09:52:59;12.00;99.90
33717;DHT22;20046;50.746;7.072;2024-01-25T09:55:26;12.00;99.90
33717;DHT22;20046;50.746;7.072;2024-01-25T09:57:55;12.20;99.90
33717;DHT22;20046;50.746;7.072;2024-01-25T10:00:24;12.30;99.90
33717;DHT22;20046;50.746;7.072;2024-01-25T10:02:50;12.20;99.90
33717;DHT22;20046;50.746;7.072;2024-01-25T10:05:16;12.20;99.90
33717;DHT22;20046;50.746;7.072;2024-01-25T10:07:43;12.10;99.90
33717;DHT22;20046;50.746;7.072;2024-01-25T10:10:10;12.20;99.90
33717;DHT22;20046;50.746;7.072;2024-01-25T10:12:37;12.30;99.90
33717;DHT22;20046;50.746;7.072;2024-01-25T10:15:04;12.50;99.90
33717;DHT22;20046;50.746;7.072;2024-01-25T10:17:30;12.40;99.90
33717;DHT22;20046;50.746;7.072;2024-01-25T10:19:56;12.50;99.90
33717;DHT22;20046;50.746;7.072;2024-01-25T10:22:22;12.60;99.90
33717;DHT22;20046;50.746;7.072;2024-01-25T10:24:48;12.70;99.90
33717;DHT22;20046;50.746;7.072;2024-01-25T10:27:16;13.00;99.90
33717;DHT22;20046;50.746;7.072;2024-01-25T10:29:42;13.20;99.90
33717;DHT22;20046;50.746;7.072;2024-01-25T10:32:08;13.30;99.90
33717;DHT22;20046;50.746;7.072;2024-01-25T10:34:38;13.20;99.90
33717;DHT22;20046;50.746;7.072;2024-01-25T10:37:05;13.00;99.90
33717;DHT22;20046;50.746;7.072;2024-01-25T10:39:31;13.00;99.90
33717;DHT22;20046;50.746;7.072;2024-01-25T10:41:58;13.10;99.90
33717;DHT22;20046;50.746;7.072;2024-01-25T10:44:25;13.10;99.90
33717;DHT22;20046;50.746;7.072;2024-01-25T10:46:51;13.40;99.90
33717;DHT22;20046;50.746;7.072;2024-01-25T10:49:17;13.90;99.90
33717;DHT22;20046;50.746;7.072;2024-01-25T10:51:44;14.40;99.90
33717;DHT22;20046;50.746;7.072;2024-01-25T10:54:11;14.80;99.90
33717;DHT22;20046;50.746;7.072;2024-01-25T10:56:41;15.10;99.90
33717;DHT22;20046;50.746;7.072;2024-01-25T10:59:07;15.20;99.90
33717;DHT22;20046;50.746;7.072;2024-01-25T11:01:34;15.30;99.90
33717;DHT22;20046;50.746;7.072;2024-01-25T11:04:03;15.30;99.90
33717;DHT22;20046;50.746;7.072;2024-01-25T11:06:28;15.30;99.90
33717;DHT22;20046;50.746;7.072;2024-01-25T11:09:07;15.20;99.90
33717;DHT22;20046;50.746;7.072;2024-01-25T11:11:35;15.20;99.90
33717;DHT22;20046;50.746;7.072;2024-01-25T11:14:01;15.30;99.90
33717;DHT22;20046;50.746;7.072;2024-01-25T11:16:29;15.20;99.90
33717;DHT22;20046;50.746;7.072;2024-01-25T11:18:56;15.20;99.90
33717;DHT22;20046;50.746;7.072;2024-01-25T11:21:49;15.30;99.90
33717;DHT22;20046;50.746;7.072;2024-01-25T11:24:25;15.60;99.90
33717;DHT22;20046;50.746;7.072;2024-01-25T11:26:55;16.20;99.90
33717;DHT22;20046;50.746;7.072;2024-01-25T11:29:21;16.80;99.90
33717;DHT22;20046;50.746;7.072;2024-01-25T11:31:49;17.20;99.90
33717;DHT22;20046;50.746;7.072;2024-01-25T11:34:16;17.50;99.90
33717;DHT22;20046;50.746;7.072;2024-01-25T11:36:44;17.60;99.90
33717;DHT22;20046;50.746;7.072;2024-01-25T11:39:10;17.60;99.90
33717;DHT22;20046;50.746;7.072;2024-01-25T11:41:36;17.70;99.90
33717;DHT22;20046;50.746;7.072;2024-01-25T11:44:02;17.90;99.90
33717;DHT22;20046;50.746;7.072;2024-01-25T11:46:29;18.20;99.90
33717;DHT22;20046;50.746;7.072;2024-01-25T11:48:55;18.80;99.80
33717;DHT22;20046;50.746;7.072;2024-01-25T11:51:22;18.90;98.70
33717;DHT22;20046;50.746;7.072;2024-01-25T11:53:47;19.10;98.60
33717;DHT22;20046;50.746;7.072;2024-01-25T11:56:16;19.40;98.40
33717;DHT22;20046;50.746;7.072;2024-01-25T11:58:44;19.70;97.70
33717;DHT22;20046;50.746;7.072;2024-01-25T12:01:11;19.90;96.40
33717;DHT22;20046;50.746;7.072;2024-01-25T12:03:37;19.90;96.10
33717;DHT22;20046;50.746;7.072;2024-01-25T12:06:04;19.90;95.40
33717;DHT22;20046;50.746;7.072;2024-01-25T12:08:32;19.90;94.90
33717;DHT22;20046;50.746;7.072;2024-01-25T12:11:10;19.70;95.00
33717;DHT22;20046;50.746;7.072;2024-01-25T12:13:39;19.90;94.50
33717;DHT22;20046;50.746;7.072;2024-01-25T12:16:05;20.10;94.30
33717;DHT22;20046;50.746;7.072;2024-01-25T12:18:31;20.10;94.10
33717;DHT22;20046;50.746;7.072;2024-01-25T12:21:04;20.40;93.80
33717;DHT22;20046;50.746;7.072;2024-01-25T12:23:34;20.50;93.10
33717;DHT22;20046;50.746;7.072;2024-01-25T12:26:01;20.10;92.90
33717;DHT22;20046;50.746;7.072;2024-01-25T12:28:28;19.60;92.90
33717;DHT22;20046;50.746;7.072;2024-01-25T12:30:55;19.10;93.30
33717;DHT22;20046;50.746;7.072;2024-01-25T12:33:21;19.00;93.70
33717;DHT22;20046;50.746;7.072;2024-01-25T12:35:46;18.90;93.70
33717;DHT22;20046;50.746;7.072;2024-01-25T12:38:12;18.70;93.80
33717;DHT22;20046;50.746;7.072;2024-01-25T12:40:37;18.60;94.20
33717;DHT22;20046;50.746;7.072;2024-01-25T12:43:03;18.50;94.10
33717;DHT22;20046;50.746;7.072;2024-01-25T12:45:29;18.40;94.40
33717;DHT22;20046;50.746;7.072;2024-01-25T12:47:55;18.20;94.60
33717;DHT22;20046;50.746;7.072;2024-01-25T12:50:20;18.10;94.50
33717;DHT22;20046;50.746;7.072;2024-01-25T12:52:46;17.90;94.80
33717;DHT22;20046;50.746;7.072;2024-01-25T12:55:12;17.70;95.00
33717;DHT22;20046;50.746;7.072;2024-01-25T12:57:37;17.60;94.60
33717;DHT22;20046;50.746;7.072;2024-01-25T13:00:03;17.40;95.10
33717;DHT22;20046;50.746;7.072;2024-01-25T13:02:29;17.10;95.50
33717;DHT22;20046;50.746;7.072;2024-01-25T13:04:55;16.90;95.70
33717;DHT22;20046;50.746;7.072;2024-01-25T13:07:20;16.80;95.70
33717;DHT22;20046;50.746;7.072;2024-01-25T13:09:46;16.60;95.90
33717;DHT22;20046;50.746;7.072;2024-01-25T13:12:12;16.50;95.80
33717;DHT22;20046;50.746;7.072;2024-01-25T13:14:37;16.30;96.30
33717;DHT22;20046;50.746;7.072;2024-01-25T13:17:03;16.20;96.60
33717;DHT22;20046;50.746;7.072;2024-01-25T13:19:29;16.20;96.60
33717;DHT22;20046;50.746;7.072;2024-01-25T13:21:54;16.00;96.90
33717;DHT22;20046;50.746;7.072;2024-01-25T13:24:20;15.60;97.00
33717;DHT22;20046;50.746;7.072;2024-01-25T13:26:45;15.40;97.10
33717;DHT22;20046;50.746;7.072;2024-01-25T13:29:11;15.00;97.20
33717;DHT22;20046;50.746;7.072;2024-01-25T13:31:39;15.00;97.70
33717;DHT22;20046;50.746;7.072;2024-01-25T13:34:05;15.10;97.80
33717;DHT22;20046;50.746;7.072;2024-01-25T13:36:30;15.10;98.00
33717;DHT22;20046;50.746;7.072;2024-01-25T13:38:56;15.00;98.00
33717;DHT22;20046;50.746;7.072;2024-01-25T13:41:21;14.70;98.30
33717;DHT22;20046;50.746;7.072;2024-01-25T13:43:47;14.50;98.70
33717;DHT22;20046;50.746;7.072;2024-01-25T13:46:13;14.20;98.80
33717;DHT22;20046;50.746;7.072;2024-01-25T13:48:38;14.00;99.10
33717;DHT22;20046;50.746;7.072;2024-01-25T13:51:04;13.80;99.40
33717;DHT22;20046;50.746;7.072;2024-01-25T13:53:29;13.70;99.60
33717;DHT22;20046;50.746;7.072;2024-01-25T13:55:55;13.70;99.70
33717;DHT22;20046;50.746;7.072;2024-01-25T13:58:21;13.70;99.80
33717;DHT22;20046;50.746;7.072;2024-01-25T14:00:46;13.60;99.90
33717;DHT22;20046;50.746;7.072;2024-01-25T14:03:14;13.50;99.90
33717;DHT22;20046;50.746;7.072;2024-01-25T14:05:40;13.60;99.90
33717;DHT22;20046;50.746;7.072;2024-01-25T14:08:05;13.60;99.90
33717;DHT22;20046;50.746;7.072;2024-01-25T14:10:31;13.50;99.90
33717;DHT22;20046;50.746;7.072;2024-01-25T14:12:59;13.50;99.90
33717;DHT22;20046;50.746;7.072;2024-01-25T14:15:25;13.40;99.90
33717;DHT22;20046;50.746;7.072;2024-01-25T14:17:50;13.40;99.90
33717;DHT22;20046;50.746;7.072;2024-01-25T14:20:16;13.30;99.90
33717;DHT22;20046;50.746;7.072;2024-01-25T14:22:43;13.20;99.90
33717;DHT22;20046;50.746;7.072;2024-01-25T14:25:09;13.10;99.90
33717;DHT22;20046;50.746;7.072;2024-01-25T14:27:34;13.10;99.90
33717;DHT22;20046;50.746;7.072;2024-01-25T14:30:00;13.10;99.90
33717;DHT22;20046;50.746;7.072;2024-01-25T14:32:26;13.10;99.90
33717;DHT22;20046;50.746;7.072;2024-01-25T14:34:52;13.10;99.90
33717;DHT22;20046;50.746;7.072;2024-01-25T14:37:18;13.00;99.90
33717;DHT22;20046;50.746;7.072;2024-01-25T14:39:43;13.00;99.90
33717;DHT22;20046;50.746;7.072;2024-01-25T14:42:12;12.90;99.90
33717;DHT22;20046;50.746;7.072;2024-01-25T14:44:39;12.90;99.90
33717;DHT22;20046;50.746;7.072;2024-01-25T14:47:04;12.80;99.90
33717;DHT22;20046;50.746;7.072;2024-01-25T14:49:30;12.80;99.90
33717;DHT22;20046;50.746;7.072;2024-01-25T14:51:56;12.70;99.90
33717;DHT22;20046;50.746;7.072;2024-01-25T14:54:21;12.60;99.90
33717;DHT22;20046;50.746;7.072;2024-01-25T14:56:47;12.60;99.90
33717;DHT22;20046;50.746;7.072;2024-01-25T14:59:18;12.50;99.90
33717;DHT22;20046;50.746;7.072;2024-01-25T15:01:47;12.40;99.90
33717;DHT22;20046;50.746;7.072;2024-01-25T15:04:12;12.40;99.90
33717;DHT22;20046;50.746;7.072;2024-01-25T15:06:39;12.30;99.90
33717;DHT22;20046;50.746;7.072;2024-01-25T15:09:04;12.20;99.90
33717;DHT22;20046;50.746;7.072;2024-01-25T15:11:32;12.10;99.90
33717;DHT22;20046;50.746;7.072;2024-01-25T15:13:58;11.90;99.90
33717;DHT22;20046;50.746;7.072;2024-01-25T15:16:23;11.80;99.90
33717;DHT22;20046;50.746;7.072;2024-01-25T15:18:49;11.70;99.90
33717;DHT22;20046;50.746;7.072;2024-01-25T15:21:14;11.70;99.90
33717;DHT22;20046;50.746;7.072;2024-01-25T15:23:40;11.60;99.90
33717;DHT22;20046;50.746;7.072;2024-01-25T15:26:05;11.60;99.90
33717;DHT22;20046;50.746;7.072;2024-01-25T15:28:31;11.50;99.90
33717;DHT22;20046;50.746;7.072;2024-01-25T15:30:57;11.50;99.90
33717;DHT22;20046;50.746;7.072;2024-01-25T15:33:23;11.40;99.90